Oaksville, New York
Current Conditions -  °F | °C
As of 7:15 AM on Friday 28 Nov 2014 (Local Time) from KNY0 Reporting Station
Clear Clear  
Wind Chill: 12°   Ceiling: Unl
Heat Index: 21°   Visibility: 10mi
Dew Point: 15°   Wind: 7mph
Humidity: 77%   Direction: 280°W
Pressure: 30.09"   Gusts: NA
Location:  42.7373°N, 74.9926°W
Report Text: KNY0 281215Z AUTO 28006KT 10SM CLR M06/M09 A3009 RMK AO2 T10611095
Loading
Personal Weather Stations






























Interactive Weather Map New forecast layout! Learn more

10-Day Weather Forecast

Advertisements
Track Severe Weather on mobile